createdAt,value
2019-05-28T00:01:28.633Z,16.20
2019-05-28T00:03:59.180Z,16.20
2019-05-28T00:06:29.715Z,16.20
2019-05-28T00:09:00.275Z,16.30
2019-05-28T00:11:30.794Z,16.20
2019-05-28T00:14:01.334Z,16.30
2019-05-28T00:16:31.836Z,16.30
2019-05-28T00:19:02.404Z,16.20
2019-05-28T00:21:32.901Z,16.20
2019-05-28T00:24:03.515Z,16.20
2019-05-28T00:26:34.032Z,16.20
2019-05-28T00:29:04.721Z,16.20
2019-05-28T00:31:35.255Z,16.10
2019-05-28T00:34:05.835Z,16.10
2019-05-28T00:36:36.382Z,16.10
2019-05-28T00:39:08.620Z,16.10
2019-05-28T00:41:39.224Z,16.10
2019-05-28T00:44:09.741Z,16.10
2019-05-28T00:46:40.294Z,16.10
2019-05-28T00:49:10.873Z,16.10
2019-05-28T00:51:42.555Z,16.00
2019-05-28T00:54:13.199Z,16.00
2019-05-28T00:56:44.731Z,15.90
2019-05-28T00:59:15.826Z,16.00
2019-05-28T01:01:46.379Z,16.00
2019-05-28T01:04:16.892Z,16.00
2019-05-28T01:06:47.448Z,16.10
2019-05-28T01:09:17.958Z,16.00
2019-05-28T01:11:48.497Z,16.00
2019-05-28T01:14:19.025Z,16.00
2019-05-28T01:16:49.563Z,16.10
2019-05-28T01:19:21.539Z,16.00
2019-05-28T01:21:52.471Z,16.00
2019-05-28T01:24:22.909Z,16.00
2019-05-28T01:26:53.416Z,16.00
2019-05-28T01:29:23.897Z,16.00
2019-05-28T01:31:54.391Z,16.00
2019-05-28T01:34:24.882Z,16.00
2019-05-28T01:36:55.360Z,15.90
2019-05-28T01:39:25.860Z,16.00
2019-05-28T01:41:56.354Z,15.90
2019-05-28T01:44:26.863Z,16.00
2019-05-28T01:46:57.338Z,16.00
2019-05-28T01:49:27.837Z,15.90
2019-05-28T01:51:58.317Z,16.00
2019-05-28T01:54:28.815Z,16.00
2019-05-28T01:56:59.289Z,16.00
2019-05-28T01:59:29.780Z,16.00
2019-05-28T02:02:00.280Z,16.00
2019-05-28T02:04:30.752Z,16.00
2019-05-28T02:07:01.257Z,16.00
2019-05-28T02:09:31.727Z,16.00
2019-05-28T02:12:02.249Z,15.90
2019-05-28T02:14:32.710Z,15.90
2019-05-28T02:17:03.210Z,16.00
2019-05-28T02:19:33.712Z,15.90
2019-05-28T02:22:04.272Z,15.90
2019-05-28T02:24:34.827Z,15.90
2019-05-28T02:27:05.392Z,15.90
2019-05-28T02:29:35.860Z,16.00
2019-05-28T02:32:06.430Z,15.90
2019-05-28T02:34:36.899Z,15.90
2019-05-28T02:37:07.402Z,15.90
2019-05-28T02:39:37.938Z,15.90
2019-05-28T02:42:08.516Z,15.90
2019-05-28T02:44:39.000Z,15.90
2019-05-28T02:47:09.561Z,15.90
2019-05-28T02:49:40.019Z,15.90
2019-05-28T02:52:10.973Z,15.80
2019-05-28T02:54:41.576Z,15.90
2019-05-28T02:57:13.591Z,15.90
2019-05-28T02:59:44.466Z,15.90
2019-05-28T03:02:18.050Z,15.80
2019-05-28T03:04:49.856Z,15.80
2019-05-28T03:07:21.402Z,15.80
2019-05-28T03:09:53.477Z,15.80
2019-05-28T03:12:24.059Z,15.80
2019-05-28T03:14:54.628Z,15.80
2019-05-28T03:17:26.240Z,15.80
2019-05-28T03:19:57.649Z,15.80
2019-05-28T03:22:30.777Z,15.80
2019-05-28T03:25:02.567Z,15.80
2019-05-28T03:27:33.088Z,15.80
2019-05-28T03:30:08.545Z,15.80
2019-05-28T03:32:39.059Z,15.80
2019-05-28T03:35:09.603Z,15.80
2019-05-28T03:37:42.449Z,15.80
2019-05-28T03:40:13.953Z,15.80
2019-05-28T03:42:44.458Z,15.80
2019-05-28T03:45:15.104Z,15.90
2019-05-28T03:47:45.604Z,15.80
2019-05-28T03:50:16.254Z,15.90
2019-05-28T03:52:46.753Z,15.90
2019-05-28T03:55:17.338Z,15.90
2019-05-28T03:57:47.848Z,15.80
2019-05-28T04:00:18.460Z,15.80
2019-05-28T04:02:48.951Z,15.90
2019-05-28T04:05:19.447Z,15.90
2019-05-28T04:07:49.940Z,15.90
2019-05-28T04:10:20.557Z,15.90
2019-05-28T04:12:51.057Z,15.90
2019-05-28T04:15:21.571Z,16.00
2019-05-28T04:17:52.100Z,15.90
2019-05-28T04:20:22.641Z,16.00
2019-05-28T04:22:53.147Z,15.90
2019-05-28T04:25:23.629Z,15.90
2019-05-28T04:27:54.131Z,15.90
2019-05-28T04:30:25.547Z,15.90
2019-05-28T04:32:56.038Z,15.90
2019-05-28T04:35:26.536Z,15.90
2019-05-28T04:37:57.039Z,15.90
2019-05-28T04:40:27.615Z,15.90
2019-05-28T04:42:58.120Z,16.00
2019-05-28T04:45:28.657Z,16.00
2019-05-28T04:47:59.167Z,16.00
2019-05-28T04:50:29.679Z,16.10
2019-05-28T04:53:00.153Z,16.20
2019-05-28T04:55:30.651Z,16.20
2019-05-28T04:58:01.132Z,16.30
2019-05-28T05:00:31.635Z,16.40
2019-05-28T05:03:02.182Z,16.40
2019-05-28T05:05:32.750Z,16.40
2019-05-28T05:08:03.237Z,16.50
2019-05-28T05:10:33.741Z,16.50
2019-05-28T05:13:04.310Z,16.50
2019-05-28T05:15:34.782Z,16.50
2019-05-28T05:18:05.421Z,16.50
2019-05-28T05:20:35.897Z,16.50
2019-05-28T05:23:06.399Z,16.50
2019-05-28T05:25:36.949Z,16.60
2019-05-28T05:28:07.518Z,16.70
2019-05-28T05:30:37.980Z,16.70
2019-05-28T05:33:20.020Z,16.70
2019-05-28T05:35:40.685Z,16.80
2019-05-28T05:38:11.814Z,16.90
2019-05-28T05:40:42.290Z,16.90
2019-05-28T05:43:12.795Z,16.90
2019-05-28T05:45:43.261Z,16.90
2019-05-28T05:48:13.762Z,17.00
2019-05-28T05:50:45.362Z,17.00
2019-05-28T05:53:16.014Z,17.10
2019-05-28T05:55:46.487Z,17.10
2019-05-28T05:58:16.985Z,17.20
2019-05-28T06:00:47.450Z,17.10
2019-05-28T06:03:17.944Z,17.10
2019-05-28T06:05:48.417Z,17.10
2019-05-28T06:08:18.919Z,17.00
2019-05-28T06:10:49.442Z,17.00
2019-05-28T06:13:19.997Z,16.90
2019-05-28T06:15:50.483Z,16.90
2019-05-28T06:18:21.144Z,16.80
2019-05-28T06:21:04.745Z,16.80
2019-05-28T06:23:23.882Z,16.80
2019-05-28T06:25:54.420Z,16.80
2019-05-28T06:28:24.919Z,16.70
2019-05-28T06:30:55.418Z,16.70
2019-05-28T06:33:25.888Z,16.60
2019-05-28T06:35:56.382Z,16.60
2019-05-28T06:38:27.657Z,16.50
2019-05-28T06:40:58.164Z,16.50
2019-05-28T06:43:28.667Z,16.50
2019-05-28T06:45:59.131Z,16.50
2019-05-28T06:48:29.631Z,16.50
2019-05-28T06:51:00.138Z,16.50
2019-05-28T06:53:30.630Z,16.50
2019-05-28T06:56:01.148Z,16.50
2019-05-28T06:58:39.601Z,16.50
2019-05-28T07:01:04.637Z,16.50
2019-05-28T07:03:35.327Z,16.50
2019-05-28T07:06:07.830Z,16.50
2019-05-28T07:08:38.149Z,16.50
2019-05-28T07:11:08.652Z,16.50
2019-05-28T07:13:39.122Z,16.50
2019-05-28T07:16:09.606Z,16.50
2019-05-28T07:18:40.100Z,16.50
2019-05-28T07:21:10.564Z,16.50
2019-05-28T07:23:41.072Z,16.50
2019-05-28T07:26:11.534Z,16.50
2019-05-28T07:28:42.057Z,16.60
2019-05-28T07:31:12.552Z,16.60
2019-05-28T07:33:43.060Z,16.60
2019-05-28T07:36:13.595Z,16.60
2019-05-28T07:38:44.106Z,16.70
2019-05-28T07:41:14.581Z,16.70
2019-05-28T07:43:46.610Z,16.80
2019-05-28T07:46:17.084Z,16.90
2019-05-28T07:48:47.601Z,17.00
2019-05-28T07:51:18.079Z,17.10
2019-05-28T07:53:50.462Z,17.20
2019-05-28T07:56:20.935Z,17.30
2019-05-28T07:58:51.433Z,17.40
2019-05-28T08:01:21.905Z,17.50
2019-05-28T08:03:52.400Z,17.60
2019-05-28T08:06:23.016Z,17.70
2019-05-28T08:08:53.501Z,17.80
2019-05-28T08:11:24.048Z,17.90
2019-05-28T08:13:54.543Z,17.90
2019-05-28T08:16:25.104Z,17.80
2019-05-28T08:18:55.793Z,17.80
2019-05-28T08:21:27.023Z,17.80
2019-05-28T08:23:57.663Z,17.80
2019-05-28T08:26:28.634Z,17.80
2019-05-28T08:28:59.845Z,17.80
2019-05-28T08:31:30.456Z,17.70
2019-05-28T08:34:00.969Z,17.60
2019-05-28T08:36:31.427Z,17.50
2019-05-28T08:39:01.974Z,17.40
2019-05-28T08:41:32.506Z,17.20
2019-05-28T08:44:02.995Z,17.10
2019-05-28T08:46:34.542Z,16.90
2019-05-28T08:49:05.383Z,16.90
2019-05-28T08:51:35.831Z,16.90
2019-05-28T08:54:06.535Z,16.90
2019-05-28T08:56:37.007Z,16.90
2019-05-28T08:59:07.562Z,16.90
2019-05-28T09:01:38.051Z,16.90
2019-05-28T09:04:09.334Z,16.90
2019-05-28T09:06:39.845Z,17.00
2019-05-28T09:09:10.307Z,17.00
2019-05-28T09:11:40.798Z,17.10
2019-05-28T09:14:11.290Z,17.20
2019-05-28T09:16:41.751Z,17.20
2019-05-28T09:19:12.312Z,17.30
2019-05-28T09:21:42.780Z,17.50
2019-05-28T09:24:13.399Z,17.50
2019-05-28T09:26:43.906Z,17.60
2019-05-28T09:29:14.367Z,17.60
2019-05-28T09:31:44.938Z,17.70
2019-05-28T09:34:15.416Z,17.70
2019-05-28T09:36:45.954Z,17.70
2019-05-28T09:39:16.441Z,17.80
2019-05-28T09:41:46.954Z,17.80
2019-05-28T09:44:17.449Z,17.90
2019-05-28T09:46:47.915Z,18.00
2019-05-28T09:49:18.411Z,17.90
2019-05-28T09:51:48.901Z,17.80
2019-05-28T09:54:19.360Z,17.70
2019-05-28T09:56:49.895Z,17.70
2019-05-28T09:59:20.409Z,17.70
2019-05-28T10:01:51.166Z,17.70
2019-05-28T10:04:21.625Z,17.80
2019-05-28T10:06:52.117Z,17.90
2019-05-28T10:09:22.623Z,17.90
2019-05-28T10:11:53.080Z,18.00
2019-05-28T10:14:24.483Z,18.10
2019-05-28T10:16:55.215Z,18.10
2019-05-28T10:19:25.735Z,18.00
2019-05-28T10:21:56.215Z,17.90
2019-05-28T10:24:26.718Z,17.80
2019-05-28T10:26:57.181Z,17.80
2019-05-28T10:29:28.043Z,17.90
2019-05-28T10:31:58.623Z,18.10
2019-05-28T10:34:29.120Z,18.50
2019-05-28T10:36:59.587Z,19.00
2019-05-28T10:39:30.081Z,19.20
2019-05-28T10:42:00.615Z,19.40
2019-05-28T10:44:31.801Z,19.60
2019-05-28T10:47:02.285Z,19.90
2019-05-28T10:49:33.625Z,20.30
2019-05-28T10:52:04.225Z,20.70
2019-05-28T10:54:35.286Z,21.00
2019-05-28T10:57:05.772Z,21.20
2019-05-28T10:59:36.915Z,21.30
2019-05-28T11:02:07.482Z,21.40
2019-05-28T11:04:37.951Z,21.60
2019-05-28T11:07:10.892Z,21.70
2019-05-28T11:09:41.365Z,21.60
2019-05-28T11:12:12.907Z,21.50
2019-05-28T11:14:43.375Z,21.30
2019-05-28T11:17:14.106Z,21.10
2019-05-28T11:19:44.585Z,20.80
2019-05-28T11:22:15.082Z,20.60
2019-05-28T11:24:45.640Z,20.40
2019-05-28T11:27:16.139Z,20.20
2019-05-28T11:29:46.598Z,20.00
2019-05-28T11:32:17.090Z,19.80
2019-05-28T11:34:47.562Z,19.70
2019-05-28T11:37:18.046Z,19.50
2019-05-28T11:39:48.523Z,19.40
2019-05-28T11:42:19.028Z,19.30
2019-05-28T11:44:49.490Z,19.20
2019-05-28T11:47:19.980Z,19.10
2019-05-28T11:49:50.858Z,19.00
2019-05-28T11:52:21.341Z,19.00
2019-05-28T11:54:51.817Z,19.00
2019-05-28T11:57:22.286Z,18.80
2019-05-28T11:59:52.794Z,18.50
2019-05-28T12:02:23.265Z,18.40
2019-05-28T12:04:55.415Z,18.40
2019-05-28T12:07:26.674Z,18.50
2019-05-28T12:09:57.144Z,18.80
2019-05-28T12:12:27.634Z,19.00
2019-05-28T12:14:58.127Z,19.50
2019-05-28T12:17:41.737Z,20.00
2019-05-28T12:20:00.795Z,20.80
2019-05-28T12:22:31.261Z,21.70
2019-05-28T12:25:02.229Z,22.30
2019-05-28T12:27:33.145Z,22.50
2019-05-28T12:30:05.050Z,22.50
2019-05-28T12:32:35.608Z,21.90
2019-05-28T12:35:26.626Z,21.50
2019-05-28T12:37:49.046Z,21.10
2019-05-28T12:40:15.678Z,20.80
2019-05-28T12:42:46.133Z,20.80
2019-05-28T12:45:33.891Z,21.00
2019-05-28T12:48:07.329Z,20.90
2019-05-28T12:50:26.364Z,20.60
2019-05-28T12:52:56.927Z,20.10
2019-05-28T12:55:27.418Z,19.80
2019-05-28T12:57:58.054Z,19.70
2019-05-28T13:00:30.147Z,19.60
2019-05-28T13:03:00.917Z,19.40
2019-05-28T13:05:31.705Z,19.30
2019-05-28T13:08:09.411Z,19.20
2019-05-28T13:10:34.482Z,19.00
2019-05-28T13:13:05.313Z,18.60
2019-05-28T13:15:35.811Z,18.10
2019-05-28T13:18:06.383Z,17.80
2019-05-28T13:20:36.878Z,17.60
2019-05-28T13:23:07.537Z,17.40
2019-05-28T13:25:38.072Z,17.10
2019-05-28T13:28:09.011Z,16.90
2019-05-28T13:30:39.769Z,16.60
2019-05-28T13:33:10.265Z,16.60
2019-05-28T13:35:40.733Z,16.50
2019-05-28T13:38:26.402Z,16.40
2019-05-28T13:40:43.608Z,16.40
2019-05-28T13:43:14.110Z,16.30
2019-05-28T13:45:45.433Z,16.40
2019-05-28T13:48:15.906Z,16.30
2019-05-28T13:50:46.411Z,16.30
2019-05-28T13:53:16.903Z,16.30
2019-05-28T13:55:47.410Z,16.20
2019-05-28T13:58:17.860Z,16.20
2019-05-28T14:00:48.344Z,16.20
2019-05-28T14:03:18.808Z,16.20
2019-05-28T14:05:49.458Z,16.20
2019-05-28T14:08:20.018Z,16.20
2019-05-28T14:10:50.717Z,16.20
2019-05-28T14:13:21.313Z,16.20
2019-05-28T14:15:51.826Z,16.30
2019-05-28T14:18:22.272Z,16.30
2019-05-28T14:20:52.767Z,16.40
2019-05-28T14:23:23.299Z,16.50
2019-05-28T14:25:53.820Z,16.70
2019-05-28T14:28:24.275Z,17.10
2019-05-28T14:30:59.944Z,17.40
2019-05-28T14:33:26.984Z,17.60
2019-05-28T14:35:57.526Z,17.80
2019-05-28T14:38:28.047Z,17.90
2019-05-28T14:40:59.138Z,18.00
2019-05-28T14:43:30.216Z,18.20
2019-05-28T14:46:00.677Z,18.40
2019-05-28T14:48:31.171Z,18.70
2019-05-28T14:51:01.787Z,19.00
2019-05-28T14:53:32.297Z,19.40
2019-05-28T14:56:02.771Z,19.70
2019-05-28T14:58:33.252Z,19.80
2019-05-28T15:01:03.800Z,19.70
2019-05-28T15:03:35.345Z,19.80
2019-05-28T15:06:05.820Z,19.90
2019-05-28T15:08:36.305Z,20.50
2019-05-28T15:11:06.803Z,20.90
2019-05-28T15:13:37.839Z,20.90
2019-05-28T15:16:08.374Z,20.90
2019-05-28T15:18:39.108Z,20.80
2019-05-28T15:21:11.251Z,20.70
2019-05-28T15:23:41.717Z,20.50
2019-05-28T15:26:12.212Z,20.40
2019-05-28T15:28:42.740Z,20.40
2019-05-28T15:31:15.103Z,20.30
2019-05-28T15:33:45.676Z,20.10
2019-05-28T15:36:16.656Z,20.20
2019-05-28T15:38:47.123Z,20.30
2019-05-28T15:41:17.685Z,20.20
2019-05-28T15:43:48.227Z,20.00
2019-05-28T15:46:18.727Z,19.90
2019-05-28T15:48:49.464Z,19.70
2019-05-28T15:51:19.919Z,19.60
2019-05-28T15:53:50.412Z,19.40
2019-05-28T15:56:20.905Z,19.40
2019-05-28T15:58:52.999Z,19.30
2019-05-28T16:01:23.460Z,19.20
2019-05-28T16:03:53.957Z,19.30
2019-05-28T16:06:24.420Z,19.60
2019-05-28T16:08:55.049Z,19.80
2019-05-28T16:11:27.514Z,20.10
2019-05-28T16:13:58.034Z,20.20
2019-05-28T16:16:28.497Z,20.20
2019-05-28T16:18:58.980Z,20.20
2019-05-28T16:21:29.489Z,20.20
2019-05-28T16:24:00.016Z,20.10
2019-05-28T16:26:30.530Z,19.90
2019-05-28T16:29:00.994Z,19.70
2019-05-28T16:31:31.552Z,19.50
2019-05-28T16:34:02.053Z,19.30
2019-05-28T16:36:32.809Z,19.20
2019-05-28T16:39:03.463Z,19.10
2019-05-28T16:41:33.925Z,18.90
2019-05-28T16:44:05.936Z,18.90
2019-05-28T16:46:36.530Z,18.70
2019-05-28T16:49:06.967Z,18.70
2019-05-28T16:51:37.487Z,18.60
2019-05-28T16:54:18.519Z,18.60
2019-05-28T16:56:41.224Z,18.70
2019-05-28T16:59:11.700Z,18.70
2019-05-28T17:01:42.277Z,18.80
2019-05-28T17:04:12.742Z,18.90
2019-05-28T17:06:43.249Z,19.10
2019-05-28T17:09:15.250Z,19.30
2019-05-28T17:11:45.827Z,19.40
2019-05-28T17:14:16.310Z,19.40
2019-05-28T17:16:47.968Z,19.40
2019-05-28T17:19:18.464Z,19.30
2019-05-28T17:21:49.033Z,19.20
2019-05-28T17:24:20.618Z,19.00
2019-05-28T17:26:51.085Z,18.80
2019-05-28T17:29:21.576Z,18.70
2019-05-28T17:31:52.049Z,18.60
2019-05-28T17:34:22.607Z,18.50
2019-05-28T17:36:53.076Z,18.30
2019-05-28T17:39:23.670Z,18.20
2019-05-28T17:41:54.139Z,18.10
2019-05-28T17:44:25.813Z,17.90
2019-05-28T17:46:56.289Z,17.80
2019-05-28T17:49:26.769Z,17.70
2019-05-28T17:51:57.259Z,17.60
2019-05-28T17:54:27.736Z,17.60
2019-05-28T17:56:58.233Z,17.50
2019-05-28T17:59:28.694Z,17.40
2019-05-28T18:01:59.229Z,17.30
2019-05-28T18:05:06.375Z,17.30
2019-05-28T18:07:36.839Z,17.20
2019-05-28T18:10:12.593Z,17.10
2019-05-28T18:12:43.331Z,17.00
2019-05-28T18:15:14.354Z,16.90
2019-05-28T18:17:44.905Z,16.90
2019-05-28T18:20:15.869Z,16.80
2019-05-28T18:22:46.533Z,16.80
2019-05-28T18:25:20.209Z,16.70
2019-05-28T18:27:49.725Z,16.70
2019-05-28T18:30:21.670Z,16.60
2019-05-28T18:32:52.152Z,16.60
2019-05-28T18:35:22.645Z,16.60
2019-05-28T18:38:03.372Z,16.60
2019-05-28T18:40:25.382Z,16.60
2019-05-28T18:42:55.885Z,16.60
2019-05-28T18:45:27.196Z,16.50
2019-05-28T18:47:58.554Z,16.50
2019-05-28T18:50:30.232Z,16.50
2019-05-28T18:53:01.992Z,16.50
2019-05-28T18:55:32.542Z,16.50
2019-05-28T18:58:03.125Z,16.50
2019-05-28T19:00:33.832Z,16.50
2019-05-28T19:03:04.291Z,16.50
2019-05-28T19:05:34.853Z,16.50
2019-05-28T19:08:05.541Z,16.40
2019-05-28T19:10:36.072Z,16.40
2019-05-28T19:13:06.513Z,16.40
2019-05-28T19:15:37.009Z,16.40
2019-05-28T19:18:07.512Z,16.40
2019-05-28T19:20:39.076Z,16.40
2019-05-28T19:23:09.560Z,16.30
2019-05-28T19:25:40.057Z,16.40
2019-05-28T19:28:10.542Z,16.40
2019-05-28T19:30:41.025Z,16.30
2019-05-28T19:33:11.515Z,16.30
2019-05-28T19:35:42.051Z,16.20
2019-05-28T19:38:13.016Z,16.20
2019-05-28T19:40:44.686Z,16.20
2019-05-28T19:43:15.202Z,16.20
2019-05-28T19:45:46.169Z,16.20
2019-05-28T19:48:16.650Z,16.20
2019-05-28T19:50:47.116Z,16.20
2019-05-28T19:53:17.632Z,16.20
2019-05-28T19:55:48.202Z,16.20
2019-05-28T19:58:18.738Z,16.20
2019-05-28T20:00:49.366Z,16.20
2019-05-28T20:03:19.904Z,16.10
2019-05-28T20:05:50.401Z,16.10
2019-05-28T20:08:20.877Z,16.10
2019-05-28T20:10:51.382Z,16.10
2019-05-28T20:13:22.842Z,16.10
2019-05-28T20:15:56.688Z,16.10
2019-05-28T20:18:27.013Z,16.10
2019-05-28T20:20:57.781Z,16.10
2019-05-28T20:23:28.259Z,16.10
2019-05-28T20:25:58.765Z,16.10
2019-05-28T20:28:29.263Z,16.00
2019-05-28T20:30:59.823Z,16.00
2019-05-28T20:33:31.783Z,16.00
2019-05-28T20:36:03.650Z,16.00
2019-05-28T20:38:34.280Z,16.00
2019-05-28T20:41:06.464Z,15.90
2019-05-28T20:43:39.372Z,15.90
2019-05-28T20:46:10.681Z,16.00
2019-05-28T20:48:41.307Z,15.90
2019-05-28T20:51:20.202Z,16.00
2019-05-28T20:53:44.008Z,16.00
2019-05-28T20:56:14.480Z,16.00
2019-05-28T20:58:44.962Z,15.90
2019-05-28T21:01:15.426Z,15.90
2019-05-28T21:03:45.992Z,15.90
2019-05-28T21:06:16.457Z,15.90
2019-05-28T21:08:48.015Z,15.90
2019-05-28T21:11:18.598Z,15.90
2019-05-28T21:13:49.096Z,15.90
2019-05-28T21:16:19.570Z,15.90
2019-05-28T21:18:51.058Z,15.80
2019-05-28T21:21:21.541Z,15.80
2019-05-28T21:23:52.114Z,15.80
2019-05-28T21:26:22.588Z,15.80
2019-05-28T21:28:54.193Z,15.80
2019-05-28T21:31:24.716Z,15.80
2019-05-28T21:33:55.219Z,15.80
2019-05-28T21:36:26.449Z,15.80
2019-05-28T21:38:57.402Z,15.80
2019-05-28T21:41:27.980Z,15.80
2019-05-28T21:43:58.465Z,15.80
2019-05-28T21:46:28.952Z,15.70
2019-05-28T21:48:59.447Z,15.70
2019-05-28T21:51:29.944Z,15.70
2019-05-28T21:54:01.494Z,15.70
2019-05-28T21:56:32.189Z,15.70
2019-05-28T21:59:03.715Z,15.70
2019-05-28T22:01:35.812Z,15.70
2019-05-28T22:04:07.670Z,15.70
2019-05-28T22:06:38.543Z,15.70
2019-05-28T22:09:09.212Z,15.70
2019-05-28T22:11:39.706Z,15.70
2019-05-28T22:14:10.190Z,15.70
2019-05-28T22:16:40.690Z,15.70
2019-05-28T22:19:11.240Z,15.70
2019-05-28T22:21:41.681Z,15.70
2019-05-28T22:24:12.235Z,15.70
2019-05-28T22:26:42.691Z,15.60
2019-05-28T22:29:14.271Z,15.60
2019-05-28T22:31:44.798Z,15.60
2019-05-28T22:34:15.285Z,15.60
2019-05-28T22:36:45.742Z,15.60
2019-05-28T22:39:16.236Z,15.60
2019-05-28T22:41:46.719Z,15.60
2019-05-28T22:44:17.186Z,15.60
2019-05-28T22:46:47.648Z,15.60
2019-05-28T22:49:18.210Z,15.60
2019-05-28T22:51:48.688Z,15.50
2019-05-28T22:54:19.173Z,15.50
2019-05-28T22:56:49.659Z,15.50
2019-05-28T22:59:20.170Z,15.50
2019-05-28T23:01:50.700Z,15.50
2019-05-28T23:04:21.197Z,15.50
2019-05-28T23:06:51.663Z,15.50
2019-05-28T23:09:22.149Z,15.40
2019-05-28T23:11:52.619Z,15.50
2019-05-28T23:14:23.672Z,15.40
2019-05-28T23:16:54.137Z,15.40
2019-05-28T23:19:24.629Z,15.40
2019-05-28T23:21:55.089Z,15.40
2019-05-28T23:24:25.581Z,15.40
2019-05-28T23:26:56.103Z,15.40
2019-05-28T23:29:26.577Z,15.40
2019-05-28T23:31:57.086Z,15.40
2019-05-28T23:34:27.569Z,15.30
2019-05-28T23:36:58.080Z,15.40
2019-05-28T23:39:30.231Z,15.30
2019-05-28T23:42:00.800Z,15.40
2019-05-28T23:44:31.863Z,15.30
2019-05-28T23:47:02.335Z,15.40
2019-05-28T23:49:32.830Z,15.40
2019-05-28T23:52:04.929Z,15.40
2019-05-28T23:54:35.663Z,15.40
2019-05-28T23:57:06.234Z,15.40
2019-05-28T23:59:36.736Z,15.40
